Oakland, Iowa
Current Conditions -  °F | °C
As of 12:15 PM on Thursday 27 Nov 2014 (Local Time) from KAIO Reporting Station
Overcast Overcast  
Wind Chill: 12°   Ceiling: 4200
Heat Index: 12°   Visibility: 10mi
Dew Point: -2°   Wind: 0mph
Humidity: 53%   Direction: NA
Pressure: 30.49"   Gusts: NA
Location:  41.31°N, 95.4°W
Report Text: KAIO 271815Z AUTO 00000KT 10SM BKN042 OVC055 M11/M19 A3049 RMK AO2
Loading
Personal Weather Stations






























Interactive Weather Map New forecast layout! Learn more

10-Day Weather Forecast

Advertisements
Track Severe Weather on mobile